Time;durP1;ratioP1;P1;durP2;ratioP2;P2;SDS_P1;SDS_P2;PMS_P1;PMS_P2;Temp;Humidity;BMP_temperature;BMP_pressure;BME280_temperature;BME280_humidity;BME280_pressure;Samples;Min_cycle;Max_cycle;Signal;HPM_P1;HPM_P2
2022/08/27 00:03:17;;;;;;;11.47;10.13;;;17.50;99.90;;;;;;8348089;28;20232;-66
2022/08/27 00:07:18;;;;;;;10.37;8.97;;;17.50;99.90;;;;;;8347255;28;20225;-66
2022/08/27 00:11:21;;;;;;;11.30;9.47;;;17.50;99.90;;;;;;8344380;28;20205;-67
2022/08/27 00:15:22;;;;;;;12.43;10.07;;;17.50;99.90;;;;;;8348523;28;20186;-65
2022/08/27 00:19:23;;;;;;;11.03;9.37;;;17.50;99.90;;;;;;8348205;28;20198;-66
2022/08/27 00:23:25;;;;;;;12.20;8.90;;;17.50;99.90;;;;;;8348184;28;20278;-65
2022/08/27 00:27:25;;;;;;;9.00;8.10;;;17.50;99.90;;;;;;8351113;28;20220;-66
2022/08/27 00:31:27;;;;;;;9.97;8.97;;;17.60;99.90;;;;;;8348551;28;20256;-65
2022/08/27 00:35:28;;;;;;;9.73;8.73;;;17.60;99.90;;;;;;8348449;28;20182;-65
2022/08/27 00:39:29;;;;;;;9.13;8.27;;;17.50;99.90;;;;;;8348383;28;20208;-68
2022/08/27 00:43:47;;;;;;;11.80;10.40;;;17.50;99.90;;;;;;8350032;28;20190;-67
2022/08/27 00:47:55;;;;;;;9.80;8.80;;;17.60;99.90;;;;;;8340576;28;20220;-67
2022/08/27 00:52:08;;;;;;;15.97;11.67;;;17.60;99.90;;;;;;8344070;28;20240;-67
2022/08/27 00:56:15;;;;;;;10.10;9.00;;;17.60;99.90;;;;;;8382378;28;20186;-66
2022/08/27 01:00:18;;;;;;;8.83;7.93;;;17.60;99.90;;;;;;8361400;28;20292;-68
2022/08/27 01:04:18;;;;;;;8.80;8.03;;;17.50;99.90;;;;;;8345151;28;20190;-66
2022/08/27 01:08:24;;;;;;;9.40;8.23;;;17.50;99.90;;;;;;8345487;28;20228;-66
2022/08/27 01:12:27;;;;;;;8.93;7.73;;;17.40;99.90;;;;;;8339795;28;20304;-68
2022/08/27 01:16:34;;;;;;;8.63;7.80;;;17.30;99.90;;;;;;8346665;28;20230;-67
2022/08/27 01:20:52;;;;;;;9.90;8.90;;;17.30;99.90;;;;;;8348357;28;20182;-67
2022/08/27 01:24:57;;;;;;;8.50;7.70;;;17.30;99.90;;;;;;8343765;28;20188;-69
2022/08/27 01:28:58;;;;;;;10.43;9.10;;;17.20;99.90;;;;;;8347542;28;20236;-67
2022/08/27 01:32:59;;;;;;;8.50;7.70;;;17.20;99.90;;;;;;8343374;28;20198;-68
2022/08/27 01:37:00;;;;;;;8.47;7.67;;;17.10;99.90;;;;;;8348692;28;20193;-68
2022/08/27 01:41:01;;;;;;;9.27;7.67;;;17.00;99.90;;;;;;8354703;28;20197;-68
2022/08/27 01:45:09;;;;;;;8.07;7.27;;;17.00;99.90;;;;;;8344259;28;20269;-68
2022/08/27 01:49:10;;;;;;;9.13;7.63;;;16.90;99.90;;;;;;8341573;28;20197;-68
2022/08/27 01:53:15;;;;;;;10.33;8.97;;;16.90;99.90;;;;;;8347230;28;20249;-67
2022/08/27 01:57:16;;;;;;;13.57;12.10;;;16.90;99.90;;;;;;8346110;28;20197;-70
2022/08/27 02:01:18;;;;;;;14.93;12.10;;;16.90;99.90;;;;;;8345187;28;20380;-67
2022/08/27 02:05:19;;;;;;;16.80;12.80;;;16.80;99.90;;;;;;8343330;28;20181;-68
2022/08/27 02:09:20;;;;;;;11.10;9.53;;;16.80;99.90;;;;;;8344229;28;20201;-67
2022/08/27 02:13:20;;;;;;;11.47;9.43;;;16.80;99.90;;;;;;8348466;28;20202;-68
2022/08/27 02:17:21;;;;;;;13.03;11.07;;;16.70;99.90;;;;;;8343957;28;20197;-68
2022/08/27 02:21:22;;;;;;;15.53;13.93;;;16.70;99.90;;;;;;8343892;28;20182;-68
2022/08/27 02:25:24;;;;;;;15.67;13.63;;;16.80;99.90;;;;;;8346595;28;20186;-68
2022/08/27 02:29:25;;;;;;;15.47;12.87;;;16.80;99.90;;;;;;8347806;28;20296;-67
2022/08/27 02:33:25;;;;;;;12.57;11.17;;;16.80;99.90;;;;;;8344825;28;20186;-69
2022/08/27 02:37:27;;;;;;;12.80;9.60;;;16.80;99.90;;;;;;8347744;28;20189;-68
2022/08/27 02:41:28;;;;;;;14.00;11.37;;;16.70;99.90;;;;;;8346076;28;20190;-70
2022/08/27 02:45:29;;;;;;;18.43;13.23;;;16.70;99.90;;;;;;8340992;28;20202;-68
2022/08/27 02:49:30;;;;;;;19.90;13.73;;;16.80;99.90;;;;;;8355351;28;20188;-68
2022/08/27 02:53:32;;;;;;;16.00;13.93;;;16.90;99.90;;;;;;8352528;28;20298;-69
2022/08/27 02:57:34;;;;;;;17.37;14.43;;;16.90;99.90;;;;;;8344886;28;20205;-68
2022/08/27 03:01:35;;;;;;;15.93;13.90;;;16.90;99.90;;;;;;8344666;28;20189;-68
2022/08/27 03:05:37;;;;;;;21.03;15.40;;;16.90;99.90;;;;;;8379075;28;20202;-68
2022/08/27 03:09:37;;;;;;;18.40;14.33;;;16.90;99.90;;;;;;8344287;28;20213;-69
2022/08/27 03:13:39;;;;;;;15.47;13.87;;;16.90;99.90;;;;;;8345871;28;20505;-70
2022/08/27 03:22:00;;;;;;;11.37;9.87;;;16.80;99.90;;;;;;8342685;28;20425;-67
2022/08/27 03:26:03;;;;;;;13.13;11.10;;;16.70;99.90;;;;;;8346530;28;20206;-68
2022/08/27 03:30:08;;;;;;;19.43;12.37;;;16.70;99.90;;;;;;8357185;28;20178;-68
2022/08/27 03:34:09;;;;;;;15.53;11.73;;;16.70;99.90;;;;;;8346342;28;20185;-69
2022/08/27 03:38:10;;;;;;;12.37;10.27;;;16.70;99.90;;;;;;8348035;28;20197;-69
2022/08/27 03:42:11;;;;;;;10.47;8.77;;;16.70;99.90;;;;;;8349535;28;20194;-69
2022/08/27 03:46:11;;;;;;;8.93;8.13;;;16.60;99.90;;;;;;8352130;28;20205;-69
2022/08/27 03:50:12;;;;;;;9.77;8.07;;;16.50;99.90;;;;;;8346981;28;20182;-68
2022/08/27 03:54:13;;;;;;;9.10;8.20;;;16.50;99.90;;;;;;8348605;28;20182;-68
2022/08/27 03:58:14;;;;;;;12.10;9.60;;;16.40;99.90;;;;;;8352152;28;20186;-67
2022/08/27 04:02:15;;;;;;;10.63;9.50;;;16.40;99.90;;;;;;8347227;28;20212;-67
2022/08/27 04:06:16;;;;;;;16.07;11.93;;;16.40;99.90;;;;;;8344723;28;20237;-66
2022/08/27 04:10:17;;;;;;;18.93;11.47;;;16.50;99.90;;;;;;8348889;28;20189;-65
2022/08/27 04:14:18;;;;;;;13.20;10.30;;;16.70;99.90;;;;;;8360682;28;20288;-67
2022/08/27 04:18:19;;;;;;;12.87;10.50;;;16.90;99.90;;;;;;8352498;28;20263;-69
2022/08/27 04:22:22;;;;;;;11.97;10.37;;;17.10;99.90;;;;;;8348225;28;20213;-68
2022/08/27 04:26:23;;;;;;;12.93;9.60;;;17.30;99.90;;;;;;8345380;28;20228;-68
2022/08/27 04:30:24;;;;;;;10.93;8.40;;;17.40;99.90;;;;;;8348833;28;20189;-68
2022/08/27 04:34:25;;;;;;;10.13;8.50;;;17.60;99.90;;;;;;8347357;28;20189;-69
2022/08/27 04:38:26;;;;;;;10.40;8.43;;;17.70;99.90;;;;;;8350409;28;20194;-68
2022/08/27 04:42:27;;;;;;;10.83;9.73;;;17.80;99.90;;;;;;8349493;28;20190;-68
2022/08/27 04:46:30;;;;;;;15.20;10.50;;;17.90;99.90;;;;;;8356107;28;20213;-68
2022/08/27 04:50:31;;;;;;;18.33;11.00;;;17.90;99.90;;;;;;8346999;28;20304;-67
2022/08/27 04:54:33;;;;;;;12.87;9.67;;;17.90;99.90;;;;;;8350009;28;20186;-68
2022/08/27 04:58:34;;;;;;;13.93;10.90;;;17.90;99.90;;;;;;8350506;28;20280;-67
2022/08/27 05:02:35;;;;;;;12.50;10.47;;;17.90;99.90;;;;;;8347135;28;20185;-68
2022/08/27 05:06:35;;;;;;;13.83;10.83;;;17.90;99.90;;;;;;8366647;28;20217;-70
2022/08/27 05:10:47;;;;;;;14.87;10.53;;;17.80;99.90;;;;;;8349790;28;20212;-67
2022/08/27 05:14:47;;;;;;;11.53;9.90;;;17.80;99.90;;;;;;8347808;28;20167;-68
2022/08/27 05:18:50;;;;;;;13.03;9.50;;;17.70;99.90;;;;;;8347203;28;20211;-67
2022/08/27 05:22:51;;;;;;;14.00;10.67;;;17.70;99.90;;;;;;8344851;28;20178;-68
2022/08/27 05:26:52;;;;;;;9.97;8.83;;;17.80;99.90;;;;;;8351235;28;20202;-68
2022/08/27 05:31:01;;;;;;;14.37;9.73;;;17.90;99.90;;;;;;8347157;28;20186;-68
2022/08/27 05:35:02;;;;;;;13.80;9.60;;;18.00;99.90;;;;;;8361046;28;20190;-68
2022/08/27 05:39:05;;;;;;;10.77;8.60;;;18.00;99.90;;;;;;8345705;28;20252;-69
2022/08/27 05:43:06;;;;;;;10.50;8.73;;;18.00;99.90;;;;;;8345269;28;20193;-67
2022/08/27 05:47:07;;;;;;;8.17;7.37;;;18.20;99.90;;;;;;8346831;28;20205;-66
2022/08/27 05:51:14;;;;;;;10.00;8.33;;;18.30;99.90;;;;;;8344588;28;20188;-68
2022/08/27 05:55:15;;;;;;;8.60;6.63;;;18.50;99.90;;;;;;8348561;28;20187;-68
2022/08/27 06:03:40;;;;;;;9.93;6.30;;;19.00;99.90;;;;;;8348674;28;20201;-66
2022/08/27 06:07:41;;;;;;;8.30;6.20;;;19.10;99.90;;;;;;8349170;28;20212;-65
2022/08/27 06:11:42;;;;;;;9.40;6.67;;;19.30;99.90;;;;;;8344364;28;20205;-66
2022/08/27 06:15:43;;;;;;;13.63;6.70;;;19.50;99.90;;;;;;8347715;28;20184;-66
2022/08/27 06:19:44;;;;;;;11.63;7.43;;;19.70;99.90;;;;;;8349222;28;20212;-67
2022/08/27 06:23:46;;;;;;;10.80;8.73;;;19.80;99.90;;;;;;8346242;28;20220;-66
2022/08/27 06:27:46;;;;;;;9.87;6.77;;;20.10;99.90;;;;;;8346565;28;20220;-68
2022/08/27 06:31:49;;;;;;;8.03;5.40;;;20.20;99.90;;;;;;8347342;28;20185;-67
2022/08/27 06:35:49;;;;;;;7.47;5.87;;;20.60;99.90;;;;;;8344690;28;20264;-66
2022/08/27 06:39:50;;;;;;;8.30;6.67;;;20.80;99.90;;;;;;8347221;28;20186;-67
2022/08/27 06:43:52;;;;;;;8.10;6.10;;;20.80;99.90;;;;;;8341440;28;20177;-66
2022/08/27 06:47:54;;;;;;;7.80;5.83;;;20.70;99.90;;;;;;8347119;28;20226;-66
2022/08/27 06:51:55;;;;;;;6.87;5.90;;;20.70;99.90;;;;;;8344748;28;20174;-66
2022/08/27 06:55:56;;;;;;;8.10;6.40;;;20.70;99.90;;;;;;8349325;28;20216;-66
2022/08/27 06:59:57;;;;;;;6.00;5.23;;;20.70;99.90;;;;;;8347330;28;20182;-65
2022/08/27 07:04:00;;;;;;;7.83;5.03;;;21.20;99.90;;;;;;8353229;28;20213;-65
2022/08/27 07:08:02;;;;;;;6.23;4.50;;;21.60;99.90;;;;;;8353808;28;20248;-67
2022/08/27 07:12:04;;;;;;;6.67;4.97;;;22.10;1.00;;;;;;8350190;28;20198;-66
2022/08/27 07:16:10;;;;;;;6.97;4.60;;;22.50;1.00;;;;;;8368250;28;20197;-67
2022/08/27 07:20:13;;;;;;;10.77;4.80;;;22.80;99.90;;;;;;8356067;28;20209;-65
2022/08/27 07:24:14;;;;;;;4.90;4.17;;;23.10;27.60;;;;;;8347531;28;20191;-65
2022/08/27 07:28:15;;;;;;;7.13;4.60;;;23.40;1.00;;;;;;8351013;28;20238;-64
2022/08/27 07:32:17;;;;;;;4.70;4.17;;;23.50;1.00;;;;;;8353148;28;20177;-65
2022/08/27 07:36:18;;;;;;;6.17;4.70;;;23.60;1.00;;;;;;8350374;28;20186;-66
2022/08/27 07:40:19;;;;;;;5.17;4.60;;;23.50;99.90;;;;;;8348553;28;20178;-65
2022/08/27 07:44:26;;;;;;;4.53;4.13;;;23.60;99.90;;;;;;8348383;28;20196;-65
2022/08/27 07:48:28;;;;;;;6.90;4.47;;;23.80;99.90;;;;;;8352119;28;20416;-66
2022/08/27 07:52:28;;;;;;;5.60;4.57;;;23.80;99.90;;;;;;8345543;28;20253;-67
2022/08/27 07:56:29;;;;;;;6.33;4.60;;;23.90;1.00;;;;;;8364391;28;20186;-66
2022/08/27 08:00:31;;;;;;;8.33;5.10;;;24.00;1.00;;;;;;8345966;28;20201;-65
2022/08/27 08:04:32;;;;;;;8.53;5.23;;;24.10;1.00;;;;;;8347718;28;20193;-67
2022/08/27 08:08:34;;;;;;;6.60;5.25;;;24.20;1.00;;;;;;8352986;28;20268;-66
2022/08/27 08:12:37;;;;;;;5.88;4.57;;;24.00;99.90;;;;;;8355826;28;20590;-66
2022/08/27 08:16:38;;;;;;;6.28;4.38;;;24.20;99.90;;;;;;8347251;28;20209;-65
2022/08/27 08:20:39;;;;;;;6.72;4.82;;;24.50;99.90;;;;;;8352514;28;20304;-66
2022/08/27 08:24:40;;;;;;;9.18;5.10;;;24.80;99.90;;;;;;8346829;28;20194;-66
2022/08/27 08:28:41;;;;;;;6.22;5.63;;;24.70;99.90;;;;;;8351896;28;20479;-67
2022/08/27 08:32:42;;;;;;;8.23;4.93;;;24.40;99.90;;;;;;8350688;28;20201;-66
2022/08/27 08:36:42;;;;;;;6.65;5.22;;;24.40;99.90;;;;;;8348624;28;20189;-65
2022/08/27 08:40:49;;;;;;;9.25;4.15;;;24.10;99.90;;;;;;8349128;28;20192;-67
2022/08/27 08:44:55;;;;;;;8.02;5.32;;;24.50;99.90;;;;;;8342302;28;20280;-66
2022/08/27 08:49:01;;;;;;;6.82;4.78;;;24.90;99.90;;;;;;8380329;28;20241;-66
2022/08/27 08:53:18;;;;;;;6.82;5.28;;;25.10;90.00;;;;;;8361424;28;20182;-64
2022/08/27 08:57:21;;;;;;;10.00;6.55;;;25.10;73.60;;;;;;8350153;28;20331;-67
2022/08/27 09:01:23;;;;;;;7.72;6.30;;;25.10;9.50;;;;;;8346951;28;20182;-65
2022/08/27 09:05:24;;;;;;;7.95;5.90;;;25.10;1.00;;;;;;8350655;28;20189;-66
2022/08/27 09:09:53;;;;;;;6.95;5.35;;;25.10;1.00;;;;;;8349406;28;20202;-67
2022/08/27 09:14:07;;;;;;;6.10;5.50;;;25.30;1.00;;;;;;8347595;28;20656;-65
2022/08/27 09:18:12;;;;;;;6.40;5.65;;;25.30;1.00;;;;;;8346950;28;20225;-66
2022/08/27 09:22:24;;;;;;;6.93;5.43;;;25.60;1.00;;;;;;8345926;28;20185;-65
2022/08/27 09:26:27;;;;;;;5.20;4.10;;;25.80;1.00;;;;;;8378193;28;20209;-65
2022/08/27 09:30:39;;;;;;;5.05;3.92;;;26.20;1.00;;;;;;8346255;28;20493;-65
2022/08/27 09:34:43;;;;;;;7.47;5.45;;;26.70;99.90;;;;;;8351480;28;20246;-65
2022/08/27 09:39:05;;;;;;;6.25;4.30;;;26.30;99.90;;;;;;8347077;28;20178;-66
2022/08/27 09:43:15;;;;;;;7.75;4.30;;;25.80;99.90;;;;;;8347149;28;20186;-66
2022/08/27 09:47:16;;;;;;;7.25;4.35;;;25.80;1.00;;;;;;8342110;28;20229;-65
2022/08/27 09:51:26;;;;;;;4.80;4.18;;;26.00;1.00;;;;;;8342203;28;20189;-65
2022/08/27 09:55:44;;;;;;;6.45;4.18;;;26.30;1.00;;;;;;8345698;28;20182;-66
2022/08/27 09:59:53;;;;;;;6.90;5.45;;;26.50;99.90;;;;;;8346763;28;20181;-67
2022/08/27 10:04:10;;;;;;;6.13;4.82;;;26.30;99.90;;;;;;8343718;28;20256;-65
2022/08/27 10:08:47;;;;;;;7.10;4.68;;;26.30;99.90;;;;;;8364668;28;20202;-65
2022/08/27 10:12:57;;;;;;;6.38;4.72;;;26.10;99.90;;;;;;8341690;28;20248;-64
2022/08/27 10:17:22;;;;;;;5.90;4.78;;;26.70;99.90;;;;;;8380006;28;20209;-66
2022/08/27 10:21:35;;;;;;;7.82;5.70;;;27.20;99.90;;;;;;8342288;28;20187;-65
2022/08/27 10:25:45;;;;;;;5.88;4.93;;;27.00;99.90;;;;;;8362621;28;20252;-73
2022/08/27 10:30:05;;;;;;;7.03;4.90;;;26.70;99.90;;;;;;8334544;28;20236;-66
2022/08/27 10:34:10;;;;;;;6.32;5.00;;;26.30;99.90;;;;;;8346471;28;20193;-65
2022/08/27 10:38:40;;;;;;;5.95;4.40;;;26.20;1.00;;;;;;8351294;28;20193;-68
2022/08/27 10:42:51;;;;;;;7.93;4.50;;;26.60;99.90;;;;;;8352387;28;20250;-66
2022/08/27 10:47:01;;;;;;;6.78;4.38;;;27.00;99.90;;;;;;8370499;28;20656;-66
2022/08/27 10:51:14;;;;;;;5.55;4.22;;;27.10;99.90;;;;;;8350229;28;20216;-66
2022/08/27 10:55:35;;;;;;;4.60;3.85;;;27.70;99.90;;;;;;8351825;28;20213;-65
2022/08/27 10:59:56;;;;;;;4.47;3.83;;;27.60;99.90;;;;;;8351372;28;20179;-67
2022/08/27 11:04:23;;;;;;;6.85;4.82;;;27.90;99.90;;;;;;8359995;28;20178;-66
2022/08/27 11:08:41;;;;;;;7.88;5.03;;;27.30;99.90;;;;;;8355389;28;20209;-66
2022/08/27 11:12:47;;;;;;;8.35;5.40;;;27.00;99.90;;;;;;8353267;28;20202;-66
2022/08/27 11:16:53;;;;;;;5.82;4.60;;;26.50;99.90;;;;;;8358597;28;20199;-66
2022/08/27 11:21:37;;;;;;;8.45;5.10;;;26.50;99.90;;;;;;8360378;28;20182;-65
2022/08/27 11:25:49;;;;;;;7.55;4.50;;;26.80;99.90;;;;;;8376407;28;20201;-68
2022/08/27 11:30:25;;;;;;;5.90;5.30;;;27.30;99.90;;;;;;8352143;28;20178;-66
2022/08/27 11:34:55;;;;;;;5.65;5.03;;;27.30;99.90;;;;;;8355698;28;20189;-67
2022/08/27 11:39:27;;;;;;;7.75;5.68;;;27.20;99.90;;;;;;8352185;28;20276;-67
2022/08/27 11:43:33;;;;;;;5.70;5.20;;;26.60;99.90;;;;;;8353810;28;20197;-66
2022/08/27 11:47:34;;;;;;;6.95;5.80;;;26.30;99.90;;;;;;8361331;28;20509;-65
2022/08/27 11:51:38;;;;;;;5.82;5.20;;;26.30;99.90;;;;;;8351213;28;20239;-65
2022/08/27 11:55:39;;;;;;;10.77;6.10;;;26.40;99.90;;;;;;8353519;28;20196;-65
2022/08/27 11:59:41;;;;;;;7.22;6.13;;;26.40;99.90;;;;;;8349416;28;20188;-66
2022/08/27 12:03:44;;;;;;;7.60;5.30;;;26.30;99.90;;;;;;8350871;28;20178;-69
2022/08/27 12:07:50;;;;;;;8.13;6.28;;;26.30;99.90;;;;;;8353596;28;20206;-65
2022/08/27 12:11:56;;;;;;;8.00;5.97;;;26.10;99.90;;;;;;8352936;28;20190;-65
2022/08/27 12:16:11;;;;;;;8.60;6.22;;;25.80;99.90;;;;;;8350879;28;20691;-66
2022/08/27 12:20:50;;;;;;;7.55;5.90;;;25.80;99.90;;;;;;8365702;28;20222;-65
2022/08/27 12:24:54;;;;;;;10.27;5.95;;;26.10;99.90;;;;;;8350974;28;20174;-65
2022/08/27 12:29:33;;;;;;;7.20;5.80;;;26.20;99.90;;;;;;8346757;28;20291;-65
2022/08/27 12:33:49;;;;;;;6.65;5.60;;;26.40;99.90;;;;;;8351669;28;20174;-67
2022/08/27 12:38:04;;;;;;;6.35;5.68;;;26.70;99.90;;;;;;8361912;28;20182;-66
2022/08/27 12:42:22;;;;;;;8.70;5.60;;;26.80;99.90;;;;;;8348964;28;20197;-66
2022/08/27 12:46:23;;;;;;;7.35;5.63;;;26.80;99.90;;;;;;8349870;28;20244;-65
2022/08/27 12:50:29;;;;;;;7.57;5.90;;;27.20;99.90;;;;;;8350155;28;20193;-65
2022/08/27 12:55:02;;;;;;;8.32;6.40;;;27.30;99.90;;;;;;8347627;28;20269;-68
2022/08/27 12:59:24;;;;;;;8.98;5.45;;;27.10;99.90;;;;;;8334157;28;20205;-67
2022/08/27 13:03:40;;;;;;;7.97;6.18;;;27.30;99.90;;;;;;8344737;28;20258;-71
2022/08/27 13:07:45;;;;;;;11.00;5.75;;;27.60;99.90;;;;;;8347073;28;20206;-66
2022/08/27 13:11:55;;;;;;;8.10;5.57;;;27.70;99.90;;;;;;8347737;28;20193;-66
2022/08/27 13:15:59;;;;;;;9.02;6.15;;;27.90;99.90;;;;;;8349516;28;20394;-65
2022/08/27 13:20:01;;;;;;;9.13;5.50;;;27.90;99.90;;;;;;8363908;28;20197;-65
2022/08/27 13:24:05;;;;;;;6.20;5.47;;;27.70;99.90;;;;;;8351285;28;20196;-65
2022/08/27 13:28:13;;;;;;;9.15;5.63;;;27.40;99.90;;;;;;8365748;28;20206;-64
2022/08/27 13:32:14;;;;;;;8.25;5.85;;;27.20;99.90;;;;;;8361168;28;20231;-64
2022/08/27 13:36:29;;;;;;;6.25;5.15;;;27.10;99.90;;;;;;8347893;28;20198;-65
2022/08/27 13:40:36;;;;;;;6.55;5.72;;;27.20;99.90;;;;;;8348130;28;20186;-66
2022/08/27 13:44:40;;;;;;;6.53;5.50;;;27.40;99.90;;;;;;8351197;28;20255;-66
2022/08/27 13:48:43;;;;;;;7.13;5.50;;;27.20;99.90;;;;;;8345591;28;20206;-65
2022/08/27 13:57:08;;;;;;;6.80;5.55;;;26.90;99.90;;;;;;8346009;28;20220;-67
2022/08/27 14:01:13;;;;;;;6.40;5.22;;;26.80;99.90;;;;;;8344033;28;20186;-64
2022/08/27 14:05:23;;;;;;;6.25;5.68;;;26.80;99.90;;;;;;8349807;28;20182;-64
2022/08/27 14:09:27;;;;;;;6.90;6.13;;;26.80;99.90;;;;;;8344836;28;20214;-64
2022/08/27 14:13:36;;;;;;;8.13;5.75;;;26.70;99.90;;;;;;8349507;28;20197;-64
2022/08/27 14:17:37;;;;;;;7.57;6.78;;;26.60;99.90;;;;;;8347703;28;20320;-64
2022/08/27 14:21:42;;;;;;;9.88;6.20;;;26.40;99.90;;;;;;8349727;28;20228;-64
2022/08/27 14:25:44;;;;;;;6.20;5.60;;;26.30;99.90;;;;;;8344707;28;20212;-65
2022/08/27 14:29:47;;;;;;;7.40;6.05;;;26.20;99.90;;;;;;8363451;28;20178;-65
2022/08/27 14:33:50;;;;;;;9.40;6.47;;;26.10;1.00;;;;;;8347846;28;20178;-64
2022/08/27 14:37:51;;;;;;;7.72;6.80;;;26.00;1.00;;;;;;8352374;28;20182;-65
2022/08/27 14:41:53;;;;;;;7.47;6.68;;;25.90;1.00;;;;;;8343476;28;20582;-66
2022/08/27 14:45:54;;;;;;;7.38;6.68;;;25.80;1.00;;;;;;8346370;28;20239;-64
2022/08/27 14:49:55;;;;;;;7.97;6.60;;;25.80;1.00;;;;;;8349236;28;20186;-64
2022/08/27 14:53:56;;;;;;;8.65;6.65;;;25.70;1.00;;;;;;8345180;28;20279;-64
2022/08/27 14:57:57;;;;;;;8.75;6.43;;;25.60;27.30;;;;;;8345601;28;20204;-63
2022/08/27 15:02:00;;;;;;;7.97;6.97;;;25.50;7.10;;;;;;8349659;28;20181;-64
2022/08/27 15:06:01;;;;;;;7.03;6.32;;;25.30;10.20;;;;;;8343452;28;20185;-66
2022/08/27 15:10:02;;;;;;;7.93;7.22;;;25.20;10.60;;;;;;8346445;28;20281;-64
2022/08/27 15:14:09;;;;;;;7.97;7.10;;;25.10;39.00;;;;;;8345936;28;20232;-66
2022/08/27 15:18:10;;;;;;;8.30;7.05;;;25.00;93.40;;;;;;8358434;28;20201;-66
2022/08/27 15:22:19;;;;;;;9.35;7.70;;;25.00;99.90;;;;;;8347678;28;20190;-65
2022/08/27 15:26:20;;;;;;;8.63;7.82;;;24.90;99.90;;;;;;8348021;28;20210;-64
2022/08/27 15:30:25;;;;;;;10.93;8.10;;;24.90;99.90;;;;;;8346384;28;20224;-64
2022/08/27 15:34:26;;;;;;;10.88;8.35;;;24.80;1.00;;;;;;8351162;28;20185;-66
2022/08/27 15:38:27;;;;;;;8.07;7.13;;;24.80;99.90;;;;;;8352567;28;20192;-64
2022/08/27 15:42:28;;;;;;;8.60;7.80;;;24.70;99.90;;;;;;8349971;28;20722;-64
2022/08/27 15:46:28;;;;;;;9.93;8.30;;;24.70;99.90;;;;;;8349157;28;20214;-66
2022/08/27 15:50:30;;;;;;;9.65;8.18;;;24.70;99.90;;;;;;8351693;28;20193;-63
2022/08/27 15:54:31;;;;;;;9.68;8.75;;;24.80;99.90;;;;;;8349144;28;20232;-70
2022/08/27 15:58:36;;;;;;;9.60;8.63;;;24.80;1.00;;;;;;8353913;28;20221;-65
2022/08/27 16:02:36;;;;;;;14.37;9.70;;;24.90;99.90;;;;;;8338960;28;20277;-64
2022/08/27 16:06:37;;;;;;;14.98;11.07;;;25.10;99.90;;;;;;8348593;28;20213;-64
2022/08/27 16:10:39;;;;;;;11.75;10.13;;;25.20;99.90;;;;;;8350393;28;20295;-66
2022/08/27 16:14:39;;;;;;;12.65;10.98;;;25.40;99.90;;;;;;8347675;28;20216;-65
2022/08/27 16:18:41;;;;;;;12.60;11.30;;;25.40;99.90;;;;;;8351259;28;20201;-65
2022/08/27 16:22:43;;;;;;;13.27;11.98;;;25.50;99.90;;;;;;8350071;28;20640;-63
2022/08/27 16:26:44;;;;;;;15.13;13.60;;;25.50;99.90;;;;;;8353511;28;20240;-66
2022/08/27 16:30:46;;;;;;;16.40;14.80;;;25.30;81.30;;;;;;8354670;28;20186;-64
2022/08/27 16:34:47;;;;;;;17.55;15.75;;;25.10;99.90;;;;;;8352452;28;20182;-65
2022/08/27 16:38:49;;;;;;;18.77;16.65;;;24.90;99.90;;;;;;8347540;28;20427;-65
2022/08/27 16:42:51;;;;;;;18.15;16.30;;;24.70;99.90;;;;;;8348582;28;20228;-66
2022/08/27 16:46:52;;;;;;;19.87;17.77;;;24.50;99.90;;;;;;8367186;28;20206;-65
2022/08/27 16:50:53;;;;;;;21.77;19.47;;;24.30;99.90;;;;;;8357063;28;20185;-64
2022/08/27 16:54:55;;;;;;;23.73;20.07;;;24.10;1.00;;;;;;8360131;28;20181;-65
2022/08/27 16:58:56;;;;;;;19.53;17.60;;;24.00;21.20;;;;;;8350845;28;20256;-65
2022/08/27 17:02:57;;;;;;;22.57;20.27;;;23.90;99.90;;;;;;8346277;28;20501;-64
2022/08/27 17:06:58;;;;;;;20.20;18.20;;;23.80;99.90;;;;;;8346703;28;20217;-65
2022/08/27 17:10:59;;;;;;;23.90;21.17;;;23.60;99.90;;;;;;8346081;28;20193;-65
2022/08/27 17:15:00;;;;;;;23.67;20.70;;;23.40;1.00;;;;;;8346984;28;20189;-65
2022/08/27 17:19:03;;;;;;;22.07;19.77;;;23.30;1.00;;;;;;8351680;28;20212;-64
2022/08/27 17:23:05;;;;;;;27.20;22.37;;;23.10;99.90;;;;;;8347311;28;20189;-64
2022/08/27 17:27:06;;;;;;;25.63;23.07;;;22.90;71.00;;;;;;8348787;28;20210;-65
2022/08/27 17:31:10;;;;;;;24.83;22.03;;;22.70;99.90;;;;;;8345419;28;20182;-64
2022/08/27 17:35:12;;;;;;;25.53;22.80;;;22.60;1.00;;;;;;8346516;28;20202;-66
2022/08/27 17:39:14;;;;;;;23.73;20.93;;;22.50;99.90;;;;;;8350225;28;20177;-66
2022/08/27 17:43:15;;;;;;;22.93;20.63;;;22.40;98.00;;;;;;8346430;28;20186;-64
2022/08/27 17:47:16;;;;;;;22.43;20.10;;;22.40;99.90;;;;;;8346378;28;20331;-64
2022/08/27 17:51:18;;;;;;;23.87;21.13;;;22.30;9.90;;;;;;8342699;28;20174;-65
2022/08/27 17:55:19;;;;;;;24.43;21.90;;;22.20;99.90;;;;;;8348038;28;20178;-66
2022/08/27 17:59:20;;;;;;;22.67;20.30;;;22.10;99.90;;;;;;8347437;28;20182;-65
2022/08/27 18:03:21;;;;;;;23.30;20.87;;;22.00;1.00;;;;;;8342804;28;20185;-64
2022/08/27 18:07:22;;;;;;;28.03;24.07;;;21.90;1.00;;;;;;8348574;28;20213;-64
2022/08/27 18:11:24;;;;;;;28.47;24.33;;;21.80;99.90;;;;;;8347169;28;20293;-65
2022/08/27 18:15:27;;;;;;;29.07;25.87;;;21.70;99.90;;;;;;8348476;28;20750;-66
2022/08/27 18:19:28;;;;;;;24.43;21.93;;;21.60;99.90;;;;;;8344770;28;20224;-65
2022/08/27 18:23:29;;;;;;;23.60;21.20;;;21.50;99.90;;;;;;8347825;28;20192;-66
2022/08/27 18:27:33;;;;;;;27.43;24.53;;;21.50;99.90;;;;;;8347827;28;20232;-64
2022/08/27 18:31:34;;;;;;;27.47;24.60;;;21.50;99.90;;;;;;8343705;28;20288;-66
2022/08/27 18:35:36;;;;;;;25.00;22.40;;;21.40;99.90;;;;;;8346771;28;20184;-65
2022/08/27 18:39:37;;;;;;;24.27;21.77;;;21.50;1.00;;;;;;8344112;28;20213;-64
2022/08/27 18:43:38;;;;;;;24.03;21.53;;;21.50;99.90;;;;;;8346707;28;20182;-64
2022/08/27 18:47:39;;;;;;;22.27;19.97;;;21.50;99.90;;;;;;8345458;28;20202;-65
2022/08/27 18:51:42;;;;;;;22.47;20.27;;;21.40;1.00;;;;;;8347884;28;20308;-64
2022/08/27 18:55:44;;;;;;;22.90;20.67;;;21.40;99.90;;;;;;8352103;28;20234;-67
2022/08/27 18:59:45;;;;;;;25.57;22.87;;;21.30;99.90;;;;;;8353239;28;20181;-67
2022/08/27 19:03:48;;;;;;;27.20;24.30;;;21.30;1.00;;;;;;8349430;28;20188;-65
2022/08/27 19:07:49;;;;;;;26.93;24.13;;;21.30;99.90;;;;;;8356719;28;20206;-64
2022/08/27 19:11:51;;;;;;;29.53;26.53;;;21.20;1.00;;;;;;8384434;28;20236;-64
2022/08/27 19:15:56;;;;;;;28.10;25.13;;;21.10;99.90;;;;;;8351681;28;20178;-64
2022/08/27 19:19:57;;;;;;;27.27;24.33;;;21.10;99.90;;;;;;8385380;28;20204;-66
2022/08/27 19:23:58;;;;;;;24.87;22.27;;;21.00;99.90;;;;;;8354820;28;20179;-64
2022/08/27 19:27:59;;;;;;;23.17;20.87;;;21.00;99.90;;;;;;8353833;28;20652;-65
2022/08/27 19:32:00;;;;;;;23.47;21.07;;;21.00;99.90;;;;;;8350105;28;20189;-65
2022/08/27 19:36:01;;;;;;;22.07;19.80;;;21.00;99.90;;;;;;8353098;28;20182;-64
2022/08/27 19:40:03;;;;;;;22.43;20.33;;;21.00;99.90;;;;;;8351724;28;20178;-64
2022/08/27 19:44:04;;;;;;;23.83;21.30;;;21.00;99.90;;;;;;8352019;28;20194;-64
2022/08/27 19:48:05;;;;;;;23.37;19.67;;;21.00;99.90;;;;;;8350089;28;20257;-64
2022/08/27 19:52:06;;;;;;;20.53;18.43;;;21.00;1.00;;;;;;8349628;28;20181;-64
2022/08/27 19:56:08;;;;;;;19.87;17.53;;;21.00;1.00;;;;;;8349312;28;20178;-64
2022/08/27 20:00:13;;;;;;;18.27;16.47;;;21.00;1.00;;;;;;8353744;28;20185;-65
2022/08/27 20:04:14;;;;;;;20.03;18.00;;;21.00;1.00;;;;;;8346191;28;20182;-66
2022/08/27 20:08:15;;;;;;;19.80;17.33;;;21.00;1.00;;;;;;8352019;28;20290;-65
2022/08/27 20:12:16;;;;;;;19.80;17.87;;;20.90;99.90;;;;;;8347303;28;20225;-66
2022/08/27 20:16:17;;;;;;;19.23;17.33;;;20.90;99.90;;;;;;8356056;28;20182;-65
2022/08/27 20:20:21;;;;;;;20.93;18.73;;;20.90;99.90;;;;;;8352419;28;20193;-66
2022/08/27 20:24:22;;;;;;;20.13;18.03;;;20.80;99.90;;;;;;8349190;28;20182;-65
2022/08/27 20:28:23;;;;;;;19.90;17.90;;;20.80;99.90;;;;;;8349350;28;20209;-67
2022/08/27 20:32:24;;;;;;;22.87;20.57;;;20.70;99.90;;;;;;8350169;28;20280;-66
2022/08/27 20:36:28;;;;;;;22.60;20.13;;;20.70;99.90;;;;;;8351124;28;20197;-66
2022/08/27 20:40:30;;;;;;;24.07;21.33;;;20.60;99.90;;;;;;8365483;28;20182;-66
2022/08/27 20:44:30;;;;;;;23.97;21.37;;;20.60;99.90;;;;;;8350449;28;20190;-64
2022/08/27 20:48:31;;;;;;;24.03;21.53;;;20.50;99.90;;;;;;8347484;28;20283;-64
2022/08/27 20:52:34;;;;;;;23.47;20.97;;;20.50;99.90;;;;;;8351462;28;20228;-67
2022/08/27 20:56:34;;;;;;;23.10;20.60;;;20.50;99.90;;;;;;8352879;28;20174;-66
2022/08/27 21:00:39;;;;;;;23.77;21.37;;;20.40;99.90;;;;;;8352805;28;20188;-66
2022/08/27 21:04:45;;;;;;;23.47;20.93;;;20.50;99.90;;;;;;8348811;28;20179;-66
2022/08/27 21:08:46;;;;;;;25.17;22.57;;;20.40;99.90;;;;;;8345566;28;20212;-67
2022/08/27 21:12:48;;;;;;;24.83;22.23;;;20.40;99.90;;;;;;8355775;28;20198;-66
2022/08/27 21:16:49;;;;;;;26.10;23.00;;;20.30;99.90;;;;;;8349940;28;20194;-66